Hancock, MI

3:10 PM EDT on September 20, 2014 (GMT -0400)
Forsman Road | Change Station
CLOSE
Current Station
Personal Weather Station
Location: Hancock, MI
Elevation: 1116 ft
Nearby Weather Stations

Elev 1116 ft 47.15 °N, 88.52 °W | Updated 7 seconds ago

Overcast
Overcast
62.9 °F
Feels Like 62.9 °F
N
0.0
Wind Variable Wind from NW
Gusts 15.0 mph

Today
High -- | Low -- °F
--% Chance of Precip.
Yesterday
High -- | Low -- °F
Precip. -- in
7:38 AM 7:55 PM
Waning Crescent, 11% visible
Pressure 29.65 in
Visibility 10.0 miles
Clouds Mostly Cloudy 2000 ft
Mostly Cloudy 2900 ft
Overcast 4100 ft
Dew Point 58 °F
Humidity 83%
Rainfall 0.00 in
Snow Depth Not available.
UV 2 out of 12
Pollen .40 out of 12
Air Quality Not available.
Flu Activity Not available.
METAR KCMX 201853Z AUTO 28015KT 10SM BKN020 BKN029 OVC041 18/13 A2965 RMK AO2 SLPNO T01830128

More Conditions Fewer Conditions

Pressure 29.65 in
Visibility 10.0 miles
Clouds Mostly Cloudy 2000 ft
Mostly Cloudy 2900 ft
Overcast 4100 ft
Dew Point 58 °F
Humidity 83%
Rainfall 0.00 in
Snow Depth Not available.
UV 2 out of 12
Pollen .40 out of 12
Air Quality Not available.
Flu Activity Not available.
METAR KCMX 201853Z AUTO 28015KT 10SM BKN020 BKN029 OVC041 18/13 A2965 RMK AO2 SLPNO T01830128

More Conditions Fewer Conditions

10-Day Weather Forecast

Almanac

Astronomy

Sep. 20, 2014 Rise Set
Actual Time 7:38 AM EDT 7:55 PM EDT
Civil Twilight 7:07 AM EDT 8:26 PM EDT
Nautical Twilight 6:31 AM EDT 9:02 PM EDT
Astronomical Twilight 5:54 AM EDT 9:39 PM EDT
Moon 4:06 AM EDT 6:07 PM EDT
Length of Visible Light 13h 18m
Length of Day
12h 17m
Tomorrow will be 3m 21s shorter.
Waning Crescent, 11% of the Moon is Illuminated
Today
Waning Crescent
Sep 24
New
Oct 1
First Quarter
Oct 8
Full
Oct 15
Last Quarter

Today's Extremes

State Highs State Lows

Community

WunderPhotos

Upload Photos

1,754,921 photos uploaded!

WunderBlogs® & News

Nearby

Snow Depth

Station Depth Elevation
No new snow has been reported.

Earthquake Activity

City Distance Mag. Time & Date
No recent earthquake activity has been reported nearby.
Minimum magnitude displayed is 2.5.

Coastal Water Temperatures

Place Temperature
No Stations Reporting

Nearby Weather Stations